createdAt,value
2018-02-18T00:00:03.535Z,3.15
2018-02-18T00:02:30.975Z,2.93
2018-02-18T00:04:57.656Z,3.01
2018-02-18T00:07:24.368Z,3.21
2018-02-18T00:09:51.826Z,3.02
2018-02-18T00:12:19.680Z,2.96
2018-02-18T00:14:47.379Z,2.77
2018-02-18T00:17:14.838Z,2.92
2018-02-18T00:19:42.449Z,2.96
2018-02-18T00:22:09.253Z,2.96
2018-02-18T00:24:37.839Z,2.81
2018-02-18T00:27:05.289Z,2.82
2018-02-18T00:29:32.013Z,2.83
2018-02-18T00:31:58.826Z,2.95
2018-02-18T00:34:25.567Z,3.00
2018-02-18T00:36:52.370Z,3.06
2018-02-18T00:39:19.814Z,3.14
2018-02-18T00:41:46.536Z,3.07
2018-02-18T00:44:13.252Z,3.04
2018-02-18T00:46:39.970Z,3.01
2018-02-18T00:49:07.517Z,3.00
2018-02-18T00:51:34.247Z,3.03
2018-02-18T00:54:00.955Z,3.01
2018-02-18T00:56:27.662Z,3.17
2018-02-18T00:58:55.068Z,3.14
2018-02-18T01:01:21.805Z,3.22
2018-02-18T01:03:48.514Z,3.20
2018-02-18T01:06:15.976Z,3.18
2018-02-18T01:08:42.761Z,3.07
2018-02-18T01:11:09.439Z,3.04
2018-02-18T01:13:36.134Z,3.02
2018-02-18T01:16:02.838Z,3.14
2018-02-18T01:18:30.327Z,3.20
2018-02-18T01:20:57.052Z,3.06
2018-02-18T01:23:23.764Z,3.14
2018-02-18T01:25:50.468Z,3.01
2018-02-18T01:28:17.162Z,3.02
2018-02-18T01:30:43.866Z,2.96
2018-02-18T01:33:10.551Z,2.90
2018-02-18T01:35:37.239Z,2.89
2018-02-18T01:38:04.016Z,2.82
2018-02-18T01:40:30.719Z,2.84
2018-02-18T01:42:57.438Z,2.85
2018-02-18T01:45:24.865Z,2.76
2018-02-18T01:47:51.568Z,2.77
2018-02-18T01:50:35.538Z,2.77
2018-02-18T01:53:02.308Z,2.80
2018-02-18T01:55:29.050Z,2.79
2018-02-18T01:57:55.735Z,2.72
2018-02-18T02:00:23.286Z,2.69
2018-02-18T02:02:50.730Z,2.64
2018-02-18T02:05:17.438Z,2.56
2018-02-18T02:07:44.136Z,2.53
2018-02-18T02:10:11.574Z,2.55
2018-02-18T02:12:38.263Z,2.52
2018-02-18T02:15:04.954Z,2.55
2018-02-18T02:17:31.659Z,2.55
2018-02-18T02:19:58.394Z,2.56
2018-02-18T02:22:25.093Z,2.54
2018-02-18T02:24:51.831Z,2.54
2018-02-18T02:27:18.522Z,2.58
2018-02-18T02:29:45.225Z,2.60
2018-02-18T02:32:11.950Z,2.57
2018-02-18T02:34:38.624Z,2.59
2018-02-18T02:37:06.101Z,2.54
2018-02-18T02:39:32.832Z,2.57
2018-02-18T02:42:00.275Z,2.63
2018-02-18T02:44:26.962Z,2.56
2018-02-18T02:46:53.654Z,2.63
2018-02-18T02:49:20.359Z,2.64
2018-02-18T02:51:47.033Z,2.66
2018-02-18T02:54:13.744Z,2.70
2018-02-18T02:56:40.529Z,2.64
2018-02-18T02:59:07.203Z,2.72
2018-02-18T03:01:34.660Z,2.78
2018-02-18T03:04:02.128Z,2.87
2018-02-18T03:06:29.615Z,2.87
2018-02-18T03:08:56.497Z,2.81
2018-02-18T03:11:23.184Z,2.80
2018-02-18T03:13:50.625Z,2.67
2018-02-18T03:16:17.304Z,2.87
2018-02-18T03:18:44.273Z,2.81
2018-02-18T03:21:10.949Z,2.79
2018-02-18T03:23:37.647Z,2.79
2018-02-18T03:26:04.339Z,2.64
2018-02-18T03:28:31.014Z,2.47
2018-02-18T03:30:57.720Z,2.49
2018-02-18T03:33:24.419Z,2.49
2018-02-18T03:35:51.086Z,2.68
2018-02-18T03:38:17.839Z,2.69
2018-02-18T03:40:44.543Z,2.50
2018-02-18T03:43:11.228Z,2.70
2018-02-18T03:45:37.899Z,2.70
2018-02-18T03:48:05.343Z,2.65
2018-02-18T03:50:32.054Z,2.60
2018-02-18T03:52:58.743Z,2.53
2018-02-18T03:55:26.190Z,2.33
2018-02-18T03:57:52.935Z,2.53
2018-02-18T04:00:21.688Z,2.45
2018-02-18T04:02:48.402Z,2.41
2018-02-18T04:05:15.116Z,2.49
2018-02-18T04:07:41.801Z,2.59
2018-02-18T04:10:08.505Z,2.62
2018-02-18T04:12:35.949Z,2.52
2018-02-18T04:15:02.647Z,2.39
2018-02-18T04:17:29.318Z,2.45
2018-02-18T04:19:56.023Z,2.32
2018-02-18T04:22:22.732Z,2.44
2018-02-18T04:24:49.448Z,2.37
2018-02-18T04:27:16.144Z,2.42
2018-02-18T04:29:43.588Z,2.45
2018-02-18T04:32:10.349Z,2.36
2018-02-18T04:34:37.780Z,2.41
2018-02-18T04:37:04.515Z,2.43
2018-02-18T04:39:31.286Z,2.34
2018-02-18T04:41:58.713Z,2.39
2018-02-18T04:44:25.387Z,2.33
2018-02-18T04:46:52.122Z,2.27
2018-02-18T04:49:18.786Z,2.25
2018-02-18T04:51:45.491Z,2.26
2018-02-18T04:54:12.186Z,2.27
2018-02-18T04:56:38.880Z,2.27
2018-02-18T04:59:05.594Z,2.29
2018-02-18T05:01:32.367Z,2.23
2018-02-18T05:03:59.075Z,2.27
2018-02-18T05:06:25.784Z,2.26
2018-02-18T05:08:53.243Z,2.13
2018-02-18T05:11:20.683Z,2.05
2018-02-18T05:13:47.384Z,2.07
2018-02-18T05:16:14.134Z,2.08
2018-02-18T05:18:40.842Z,2.09
2018-02-18T05:21:08.252Z,2.19
2018-02-18T05:23:34.955Z,2.11
2018-02-18T05:26:01.639Z,1.91
2018-02-18T05:28:29.068Z,1.92
2018-02-18T05:30:55.785Z,1.89
2018-02-18T05:33:23.230Z,1.85
2018-02-18T05:35:49.915Z,1.85
2018-02-18T05:38:16.620Z,1.92
2018-02-18T05:40:43.342Z,1.86
2018-02-18T05:43:10.059Z,1.89
2018-02-18T05:45:38.358Z,1.90
2018-02-18T05:48:05.035Z,1.80
2018-02-18T05:50:32.479Z,1.69
2018-02-18T05:52:59.177Z,1.72
2018-02-18T05:55:25.891Z,1.82
2018-02-18T05:57:53.320Z,1.83
2018-02-18T06:00:20.001Z,1.91
2018-02-18T06:02:47.464Z,1.89
2018-02-18T06:05:14.926Z,1.74
2018-02-18T06:07:42.375Z,1.81
2018-02-18T06:10:09.804Z,1.90
2018-02-18T06:12:36.519Z,1.91
2018-02-18T06:15:03.244Z,1.91
2018-02-18T06:17:29.936Z,1.87
2018-02-18T06:19:56.655Z,1.81
2018-02-18T06:22:23.346Z,1.88
2018-02-18T06:24:50.020Z,1.89
2018-02-18T06:27:16.719Z,1.93
2018-02-18T06:29:43.407Z,1.91
2018-02-18T06:32:10.113Z,2.06
2018-02-18T06:34:36.823Z,2.07
2018-02-18T06:37:03.544Z,2.06
2018-02-18T06:39:30.259Z,2.06
2018-02-18T06:41:57.696Z,2.04
2018-02-18T06:44:24.509Z,2.04
2018-02-18T06:46:51.253Z,2.01
2018-02-18T06:49:17.949Z,2.00
2018-02-18T06:51:45.419Z,2.03
2018-02-18T06:54:12.860Z,2.05
2018-02-18T06:56:39.552Z,2.13
2018-02-18T06:59:06.233Z,2.25
2018-02-18T07:01:32.926Z,2.33
2018-02-18T07:03:59.618Z,2.31
2018-02-18T07:06:26.369Z,2.23
2018-02-18T07:08:53.107Z,2.27
2018-02-18T07:11:19.847Z,2.36
2018-02-18T07:13:46.526Z,2.26
2018-02-18T07:16:13.990Z,2.15
2018-02-18T07:18:41.435Z,2.24
2018-02-18T07:21:08.885Z,2.29
2018-02-18T07:23:35.594Z,2.20
2018-02-18T07:26:02.284Z,2.38
2018-02-18T07:28:28.991Z,2.55
2018-02-18T07:30:55.698Z,2.66
2018-02-18T07:33:22.389Z,2.53
2018-02-18T07:35:49.096Z,2.61
2018-02-18T07:38:15.788Z,2.55
2018-02-18T07:40:42.523Z,2.45
2018-02-18T07:43:09.231Z,2.54
2018-02-18T07:45:35.959Z,2.50
2018-02-18T07:48:02.760Z,2.41
2018-02-18T07:50:29.571Z,2.50
2018-02-18T07:52:56.310Z,2.45
2018-02-18T07:55:23.015Z,2.51
2018-02-18T07:57:50.494Z,2.56
2018-02-18T08:00:17.200Z,2.70
2018-02-18T08:02:43.883Z,2.70
2018-02-18T08:05:10.611Z,2.80
2018-02-18T08:07:38.043Z,2.89
2018-02-18T08:10:04.796Z,2.87
2018-02-18T08:12:31.490Z,3.00
2018-02-18T08:14:58.185Z,2.95
2018-02-18T08:17:24.896Z,3.20
2018-02-18T08:19:51.635Z,3.36
2018-02-18T08:22:18.331Z,3.43
2018-02-18T08:24:45.856Z,3.55
2018-02-18T08:27:12.597Z,3.55
2018-02-18T08:29:39.464Z,3.55
2018-02-18T08:32:06.212Z,3.71
2018-02-18T08:34:33.046Z,3.71
2018-02-18T08:36:59.754Z,3.85
2018-02-18T08:39:27.194Z,4.05
2018-02-18T08:41:54.015Z,3.84
2018-02-18T08:44:20.799Z,3.73
2018-02-18T08:46:47.598Z,3.70
2018-02-18T08:49:14.375Z,3.72
2018-02-18T08:51:41.223Z,3.82
2018-02-18T08:54:08.014Z,3.47
2018-02-18T08:56:34.917Z,3.43
2018-02-18T08:59:01.637Z,3.33
2018-02-18T09:01:29.157Z,3.08
2018-02-18T09:03:56.072Z,3.33
2018-02-18T09:06:22.776Z,3.82
2018-02-18T09:08:49.433Z,3.96
2018-02-18T09:11:16.317Z,4.27
2018-02-18T09:13:43.185Z,4.20
2018-02-18T09:16:09.906Z,4.56
2018-02-18T09:18:36.675Z,4.86
2018-02-18T09:21:03.549Z,5.30
2018-02-18T09:23:30.296Z,5.22
2018-02-18T09:25:57.022Z,6.30
2018-02-18T09:28:24.036Z,5.79
2018-02-18T09:30:50.859Z,5.79
2018-02-18T09:33:17.824Z,5.05
2018-02-18T09:35:44.802Z,5.60
2018-02-18T09:38:11.607Z,4.85
2018-02-18T09:40:38.335Z,5.01
2018-02-18T09:43:05.150Z,4.36
2018-02-18T09:45:31.932Z,4.49
2018-02-18T09:48:00.277Z,5.59
2018-02-18T09:50:28.649Z,5.75
2018-02-18T09:52:56.993Z,5.69
2018-02-18T09:55:25.532Z,5.24
2018-02-18T09:57:54.055Z,5.87
2018-02-18T10:00:22.651Z,6.04
2018-02-18T10:02:50.159Z,6.52
2018-02-18T10:05:17.870Z,6.70
2018-02-18T10:07:45.321Z,6.43
2018-02-18T10:10:12.853Z,6.20
2018-02-18T10:12:39.577Z,6.24
2018-02-18T10:15:06.335Z,6.03
2018-02-18T10:17:33.075Z,5.93
2018-02-18T10:19:59.818Z,5.32
2018-02-18T10:22:26.590Z,5.93
2018-02-18T10:24:53.347Z,6.01
2018-02-18T10:27:20.081Z,5.92
2018-02-18T10:29:47.006Z,5.82
2018-02-18T10:32:13.797Z,5.75
2018-02-18T10:34:41.263Z,5.53
2018-02-18T10:37:08.722Z,5.53
2018-02-18T10:39:36.165Z,5.51
2018-02-18T10:42:03.845Z,5.53
2018-02-18T10:44:31.447Z,5.66
2018-02-18T10:46:58.171Z,5.06
2018-02-18T10:49:25.622Z,5.49
2018-02-18T10:51:53.179Z,5.11
2018-02-18T10:54:20.702Z,5.40
2018-02-18T10:56:48.467Z,5.58
2018-02-18T10:59:15.242Z,5.48
2018-02-18T11:01:42.003Z,5.89
2018-02-18T11:04:09.456Z,6.26
2018-02-18T11:06:37.501Z,6.40
2018-02-18T11:09:04.661Z,6.48
2018-02-18T11:11:31.393Z,6.72
2018-02-18T11:13:58.084Z,6.57
2018-02-18T11:16:25.538Z,6.49
2018-02-18T11:18:53.883Z,6.60
2018-02-18T11:21:20.611Z,6.58
2018-02-18T11:23:47.335Z,6.63
2018-02-18T11:26:14.157Z,6.61
2018-02-18T11:28:41.579Z,6.63
2018-02-18T11:31:08.316Z,6.81
2018-02-18T11:33:35.019Z,6.87
2018-02-18T11:36:01.776Z,7.43
2018-02-18T11:38:28.478Z,7.25
2018-02-18T11:40:55.445Z,7.42
2018-02-18T11:43:22.895Z,7.80
2018-02-18T11:45:49.636Z,8.07
2018-02-18T11:48:16.352Z,8.50
2018-02-18T11:50:43.129Z,8.83
2018-02-18T11:53:09.889Z,9.34
2018-02-18T11:55:37.335Z,9.34
2018-02-18T11:58:04.253Z,9.43
2018-02-18T12:00:31.616Z,9.56
2018-02-18T12:02:58.341Z,8.77
2018-02-18T12:05:25.239Z,9.10
2018-02-18T12:07:52.657Z,9.60
2018-02-18T12:10:19.337Z,9.37
2018-02-18T12:12:46.358Z,8.92
2018-02-18T12:15:13.060Z,8.66
2018-02-18T12:17:39.755Z,8.04
2018-02-18T12:20:07.285Z,7.93
2018-02-18T12:22:34.047Z,6.99
2018-02-18T12:25:00.791Z,7.36
2018-02-18T12:27:27.562Z,7.17
2018-02-18T12:29:54.579Z,7.49
2018-02-18T12:32:21.259Z,7.13
2018-02-18T12:34:48.692Z,7.02
2018-02-18T12:37:15.517Z,7.42
2018-02-18T12:39:42.208Z,7.68
2018-02-18T12:42:08.934Z,7.72
2018-02-18T12:44:35.999Z,7.81
2018-02-18T12:47:02.710Z,8.02
2018-02-18T12:49:29.432Z,7.51
2018-02-18T12:51:56.267Z,6.75
2018-02-18T12:54:23.832Z,7.32
2018-02-18T12:56:50.538Z,7.67
2018-02-18T12:59:17.462Z,7.85
2018-02-18T13:01:44.246Z,7.70
2018-02-18T13:04:11.879Z,7.25
2018-02-18T13:06:38.607Z,7.58
2018-02-18T13:09:06.234Z,7.54
2018-02-18T13:11:33.745Z,7.14
2018-02-18T13:14:00.506Z,7.52
2018-02-18T13:16:27.156Z,7.68
2018-02-18T13:18:53.925Z,7.67
2018-02-18T13:21:21.406Z,7.38
2018-02-18T13:23:48.123Z,7.29
2018-02-18T13:26:15.771Z,7.79
2018-02-18T13:28:42.500Z,7.72
2018-02-18T13:31:09.234Z,8.41
2018-02-18T13:33:36.103Z,7.21
2018-02-18T13:36:03.091Z,6.46
2018-02-18T13:38:29.829Z,6.46
2018-02-18T13:40:57.271Z,6.14
2018-02-18T13:43:23.991Z,6.28
2018-02-18T13:45:50.734Z,6.09
2018-02-18T13:48:17.423Z,5.91
2018-02-18T13:50:46.231Z,5.91
2018-02-18T13:53:12.927Z,5.94
2018-02-18T13:55:40.673Z,5.64
2018-02-18T13:58:07.316Z,5.47
2018-02-18T14:00:34.112Z,5.73
2018-02-18T14:03:00.963Z,6.19
2018-02-18T14:05:27.702Z,6.36
2018-02-18T14:07:55.412Z,5.86
2018-02-18T14:10:22.110Z,5.84
2018-02-18T14:12:48.840Z,5.83
2018-02-18T14:15:15.732Z,5.91
2018-02-18T14:17:42.458Z,6.18
2018-02-18T14:20:09.136Z,6.33
2018-02-18T14:22:35.839Z,5.99
2018-02-18T14:25:03.330Z,5.74
2018-02-18T14:27:30.107Z,5.72
2018-02-18T14:29:56.842Z,5.99
2018-02-18T14:32:23.546Z,6.39
2018-02-18T14:34:50.259Z,6.07
2018-02-18T14:37:16.986Z,5.62
2018-02-18T14:39:43.840Z,5.83
2018-02-18T14:42:28.951Z,6.26
2018-02-18T14:45:14.002Z,6.25
2018-02-18T14:47:59.834Z,6.02
2018-02-18T14:50:44.780Z,5.90
2018-02-18T15:06:47.892Z,5.17
2018-02-18T15:09:15.665Z,5.19
2018-02-18T15:11:43.774Z,5.29
2018-02-18T15:14:10.534Z,5.37
2018-02-18T15:16:37.378Z,5.25
2018-02-18T15:19:04.165Z,5.00
2018-02-18T15:21:31.630Z,4.94
2018-02-18T15:23:59.067Z,4.63
2018-02-18T15:26:25.992Z,4.65
2018-02-18T15:28:52.707Z,4.57
2018-02-18T15:31:19.434Z,4.40
2018-02-18T15:33:48.070Z,4.14
2018-02-18T15:36:14.836Z,4.09
2018-02-18T15:38:41.622Z,4.09
2018-02-18T15:41:08.445Z,4.12
2018-02-18T15:43:36.057Z,4.16
2018-02-18T15:46:02.810Z,4.21
2018-02-18T15:48:29.509Z,4.30
2018-02-18T15:50:56.949Z,4.29
2018-02-18T15:53:31.403Z,4.10
2018-02-18T15:55:58.178Z,4.01
2018-02-18T15:58:24.902Z,3.97
2018-02-18T16:00:51.614Z,3.92
2018-02-18T16:03:19.118Z,3.85
2018-02-18T16:05:45.841Z,3.68
2018-02-18T16:08:12.787Z,3.57
2018-02-18T16:10:39.555Z,3.60
2018-02-18T16:13:14.103Z,3.53
2018-02-18T16:15:40.983Z,3.43
2018-02-18T16:18:08.409Z,3.47
2018-02-18T16:20:35.272Z,3.39
2018-02-18T16:23:02.051Z,3.33
2018-02-18T16:25:29.576Z,3.29
2018-02-18T16:27:56.461Z,3.29
2018-02-18T16:30:23.890Z,3.31
2018-02-18T16:32:50.557Z,3.25
2018-02-18T16:35:17.370Z,3.28
2018-02-18T16:37:44.231Z,3.35
2018-02-18T16:40:11.058Z,3.28
2018-02-18T16:42:37.767Z,3.12
2018-02-18T16:45:04.621Z,3.19
2018-02-18T16:47:31.303Z,3.18
2018-02-18T16:49:58.007Z,3.22
2018-02-18T16:52:24.897Z,3.06
2018-02-18T16:54:52.203Z,3.06
2018-02-18T16:57:18.913Z,3.05
2018-02-18T16:59:46.440Z,3.13
2018-02-18T17:02:13.187Z,3.12
2018-02-18T17:04:39.995Z,3.05
2018-02-18T17:07:06.727Z,2.97
2018-02-18T17:09:33.431Z,2.94
2018-02-18T17:12:00.182Z,2.89
2018-02-18T17:14:27.020Z,3.00
2018-02-18T17:16:53.747Z,2.93
2018-02-18T17:19:20.538Z,2.90
2018-02-18T17:21:48.005Z,2.83
2018-02-18T17:24:15.462Z,2.73
2018-02-18T17:26:43.594Z,2.68
2018-02-18T17:29:10.388Z,2.71
2018-02-18T17:31:37.918Z,2.61
2018-02-18T17:34:04.704Z,2.59
2018-02-18T17:36:31.449Z,2.65
2018-02-18T17:38:58.198Z,2.67
2018-02-18T17:41:24.980Z,2.61
2018-02-18T17:43:51.752Z,2.65
2018-02-18T17:46:18.532Z,2.61
2018-02-18T17:48:45.328Z,2.66
2018-02-18T17:51:12.129Z,2.62
2018-02-18T17:53:38.896Z,2.66
2018-02-18T17:56:05.905Z,2.59
2018-02-18T17:58:33.381Z,2.72
2018-02-18T18:01:00.165Z,2.53
2018-02-18T18:03:27.122Z,2.43
2018-02-18T18:05:53.827Z,2.40
2018-02-18T18:08:20.631Z,2.36
2018-02-18T18:10:47.450Z,2.44
2018-02-18T18:13:16.356Z,2.39
2018-02-18T18:15:43.251Z,2.47
2018-02-18T18:18:09.977Z,2.41
2018-02-18T18:20:36.787Z,2.38
2018-02-18T18:23:03.527Z,2.43
2018-02-18T18:25:30.385Z,2.49
2018-02-18T18:27:57.177Z,2.60
2018-02-18T18:30:24.784Z,2.67
2018-02-18T18:32:51.590Z,2.49
2018-02-18T18:35:19.422Z,2.40
2018-02-18T18:37:46.127Z,2.38
2018-02-18T18:40:12.903Z,2.44
2018-02-18T18:42:39.673Z,2.39
2018-02-18T18:45:06.508Z,2.39
2018-02-18T18:47:33.337Z,2.29
2018-02-18T18:50:00.082Z,2.21
2018-02-18T18:52:26.848Z,2.15
2018-02-18T18:54:53.625Z,2.16
2018-02-18T18:57:20.311Z,2.15
2018-02-18T18:59:47.076Z,2.12
2018-02-18T19:02:13.783Z,2.09
2018-02-18T19:04:40.557Z,2.07
2018-02-18T19:07:07.267Z,2.05
2018-02-18T19:09:33.970Z,2.07
2018-02-18T19:12:01.482Z,2.04
2018-02-18T19:14:28.211Z,2.09
2018-02-18T19:16:54.946Z,2.20
2018-02-18T19:19:21.708Z,2.11
2018-02-18T19:21:48.481Z,2.06
2018-02-18T19:24:15.209Z,2.13
2018-02-18T19:26:41.976Z,2.16
2018-02-18T19:29:08.803Z,2.05
2018-02-18T19:31:35.554Z,1.91
2018-02-18T19:34:02.264Z,1.96
2018-02-18T19:36:29.019Z,2.03
2018-02-18T19:38:55.758Z,2.03
2018-02-18T19:41:22.477Z,1.99
2018-02-18T19:43:49.907Z,2.00
2018-02-18T19:46:16.788Z,2.01
2018-02-18T19:48:52.801Z,2.03
2018-02-18T19:51:19.603Z,1.85
2018-02-18T19:53:46.290Z,1.81
2018-02-18T19:56:13.085Z,1.79
2018-02-18T19:58:40.836Z,1.74
2018-02-18T20:01:08.304Z,1.75
2018-02-18T20:03:35.882Z,1.79
2018-02-18T20:06:02.792Z,1.80
2018-02-18T20:08:30.385Z,1.88
2018-02-18T20:10:57.094Z,1.83
2018-02-18T20:13:24.043Z,1.80
2018-02-18T20:15:51.511Z,1.77
2018-02-18T20:18:18.366Z,1.74
2018-02-18T20:20:45.891Z,1.72
2018-02-18T20:23:12.816Z,1.74
2018-02-18T20:25:39.569Z,1.78
2018-02-18T20:28:06.402Z,1.78
2018-02-18T20:30:33.135Z,1.75
2018-02-18T20:33:00.770Z,1.79
2018-02-18T20:35:28.319Z,1.83
2018-02-18T20:37:55.249Z,1.89
2018-02-18T20:40:21.961Z,1.83
2018-02-18T20:42:48.763Z,1.80
2018-02-18T20:45:15.641Z,1.79
2018-02-18T20:47:43.198Z,1.80
2018-02-18T20:50:10.744Z,1.95
2018-02-18T20:52:37.680Z,1.97
2018-02-18T20:55:04.409Z,1.85
2018-02-18T20:57:31.073Z,1.83
2018-02-18T20:59:57.827Z,1.79
2018-02-18T21:02:24.540Z,1.77
2018-02-18T21:04:51.528Z,1.76
2018-02-18T21:07:18.261Z,1.80
2018-02-18T21:09:45.094Z,1.80
2018-02-18T21:12:12.616Z,1.83
2018-02-18T21:14:39.330Z,1.83
2018-02-18T21:17:06.778Z,1.81
2018-02-18T21:19:33.519Z,1.83
2018-02-18T21:22:00.347Z,1.82
2018-02-18T21:24:27.223Z,1.80
2018-02-18T21:27:16.662Z,1.86
2018-02-18T21:29:43.527Z,1.84
2018-02-18T21:32:10.268Z,1.86
2018-02-18T21:34:37.218Z,1.91
2018-02-18T21:37:04.255Z,1.89
2018-02-18T21:39:31.810Z,1.89
2018-02-18T21:41:58.627Z,1.86
2018-02-18T21:44:25.351Z,1.85
2018-02-18T21:46:52.860Z,1.83
2018-02-18T21:49:19.590Z,1.75
2018-02-18T21:51:52.874Z,1.79
2018-02-18T21:54:20.732Z,1.76
2018-02-18T21:56:48.193Z,1.75
2018-02-18T21:59:15.646Z,1.78
2018-02-18T22:01:43.250Z,1.74
2018-02-18T22:04:09.964Z,1.73
2018-02-18T22:06:36.939Z,1.66
2018-02-18T22:09:03.779Z,1.68
2018-02-18T22:11:30.489Z,1.70
2018-02-18T22:13:57.183Z,1.73
2018-02-18T22:16:23.888Z,1.70
2018-02-18T22:18:50.661Z,1.70
2018-02-18T22:21:17.351Z,1.68
2018-02-18T22:23:44.157Z,1.69
2018-02-18T22:26:11.028Z,1.60
2018-02-18T22:28:37.745Z,1.60
2018-02-18T22:31:09.191Z,1.60
2018-02-18T22:33:37.999Z,1.67
2018-02-18T22:36:04.766Z,1.62
2018-02-18T22:38:31.716Z,1.60
2018-02-18T22:40:58.787Z,1.66
2018-02-18T22:43:25.539Z,1.66
2018-02-18T22:45:52.418Z,1.71
2018-02-18T22:48:19.136Z,1.73
2018-02-18T22:50:46.576Z,1.76
2018-02-18T22:53:13.279Z,1.78
2018-02-18T22:55:39.982Z,1.81
2018-02-18T22:58:07.451Z,1.83
2018-02-18T23:00:34.887Z,1.88
2018-02-18T23:03:01.657Z,1.87
2018-02-18T23:05:35.178Z,1.89
2018-02-18T23:08:01.916Z,1.82
2018-02-18T23:10:28.664Z,1.84
2018-02-18T23:12:55.335Z,1.81
2018-02-18T23:15:22.100Z,1.80
2018-02-18T23:17:48.809Z,1.77
2018-02-18T23:20:15.524Z,1.85
2018-02-18T23:22:42.275Z,1.81
2018-02-18T23:25:09.007Z,1.83
2018-02-18T23:27:36.480Z,1.83
2018-02-18T23:30:03.923Z,1.95
2018-02-18T23:32:30.652Z,1.89
2018-02-18T23:34:57.433Z,1.76
2018-02-18T23:37:24.874Z,1.71
2018-02-18T23:39:52.322Z,1.67
2018-02-18T23:42:19.039Z,1.71
2018-02-18T23:44:45.711Z,1.66
2018-02-18T23:47:12.457Z,1.58
2018-02-18T23:49:39.187Z,1.49
2018-02-18T23:52:05.928Z,1.48
2018-02-18T23:54:32.652Z,1.27
2018-02-18T23:56:59.415Z,1.48
2018-02-18T23:59:26.140Z,1.45
